Terminal Aerodrome Forecast
Issued by NWS

Home | Current Version | Previous Version | Text Only | Print | Product List | Glossary On
Versions: 1 2 3 4 5 6 7 8 9 10 11 12 13 14 15 16 17 18 19
977
FTUS42 KKEY 011736
TAFMTH
TAF
KMTH 011736Z 0118/0218 07008KT P6SM FEW025 SCT150
     FM012000 06006KT P6SM VCSH SCT025 SCT080=

USA.gov is the U.S. government's official web portal to all federal, state and local government web resources and services.